Aviation Digital Data Service (ADDS)

Output produced by METARs form (1229 UTC 22 March 2019)
found at http://www.aviationweather.gov/metar/data/
 
METAR text: ZSPD 221200Z 01007MPS 9999 SCT030 08/01 Q1024 NOSIG
Conditions at: ZSPD (SHANGHAI/PUDONG , CN) observed 1200 UTC 22 March 2019
Temperature: 8.0°C (46°F)
Dewpoint: 1.0°C (34°F) [RH = 61%]
Pressure (altimeter): 30.24 inches Hg (1024.0 mb)
Winds: from the N (10 degrees) at 16 MPH (14 knots; 7.2 m/s)
Visibility: 6 or more miles (10+ km)
Ceiling: at least 12,000 feet AGL
Clouds: scattered clouds at 3000 feet AGL
Weather: no significant weather observed at this time

METAR text: ZSPD 221130Z 01007MPS 9999 SCT030 09/02 Q1024 NOSIG
Conditions at: ZSPD (SHANGHAI/PUDONG , CN) observed 1130 UTC 22 March 2019
Temperature: 9.0°C (48°F)
Dewpoint: 2.0°C (36°F) [RH = 61%]
Pressure (altimeter): 30.24 inches Hg (1024.0 mb)
Winds: from the N (10 degrees) at 16 MPH (14 knots; 7.2 m/s)
Visibility: 6 or more miles (10+ km)
Ceiling: at least 12,000 feet AGL
Clouds: scattered clouds at 3000 feet AGL
Weather: no significant weather observed at this time

METAR text: ZSPD 221100Z 02007MPS 9999 SCT030 09/02 Q1023 NOSIG
Conditions at: ZSPD (SHANGHAI/PUDONG , CN) observed 1100 UTC 22 March 2019
Temperature: 9.0°C (48°F)
Dewpoint: 2.0°C (36°F) [RH = 61%]
Pressure (altimeter): 30.21 inches Hg (1023.0 mb)
Winds: from the NNE (20 degrees) at 16 MPH (14 knots; 7.2 m/s)
Visibility: 6 or more miles (10+ km)
Ceiling: at least 12,000 feet AGL
Clouds: scattered clouds at 3000 feet AGL
Weather: no significant weather observed at this time

METAR text: ZSPD 221030Z 01006MPS 9999 SCT030 09/02 Q1023 NOSIG
Conditions at: ZSPD (SHANGHAI/PUDONG , CN) observed 1030 UTC 22 March 2019
Temperature: 9.0°C (48°F)
Dewpoint: 2.0°C (36°F) [RH = 61%]
Pressure (altimeter): 30.21 inches Hg (1023.0 mb)
Winds: from the N (10 degrees) at 14 MPH (12 knots; 6.2 m/s)
Visibility: 6 or more miles (10+ km)
Ceiling: at least 12,000 feet AGL
Clouds: scattered clouds at 3000 feet AGL
Weather: no significant weather observed at this time

METAR text: ZSPD 221000Z 01006MPS 9999 FEW030 09/02 Q1023 NOSIG
Conditions at: ZSPD (SHANGHAI/PUDONG , CN) observed 1000 UTC 22 March 2019
Temperature: 9.0°C (48°F)
Dewpoint: 2.0°C (36°F) [RH = 61%]
Pressure (altimeter): 30.21 inches Hg (1023.0 mb)
Winds: from the N (10 degrees) at 14 MPH (12 knots; 6.2 m/s)
Visibility: 6 or more miles (10+ km)
Ceiling: at least 12,000 feet AGL
Clouds: few clouds at 3000 feet AGL
Weather: no significant weather observed at this time

METAR text: ZSPD 220930Z 01006MPS 9999 FEW030 09/02 Q1023 NOSIG
Conditions at: ZSPD (SHANGHAI/PUDONG , CN) observed 0930 UTC 22 March 2019
Temperature: 9.0°C (48°F)
Dewpoint: 2.0°C (36°F) [RH = 61%]
Pressure (altimeter): 30.21 inches Hg (1023.0 mb)
Winds: from the N (10 degrees) at 14 MPH (12 knots; 6.2 m/s)
Visibility: 6 or more miles (10+ km)
Ceiling: at least 12,000 feet AGL
Clouds: few clouds at 3000 feet AGL
Weather: no significant weather observed at this time

METAR text: ZSPD 220900Z 02007MPS 9999 FEW030 09/01 Q1023 NOSIG
Conditions at: ZSPD (SHANGHAI/PUDONG , CN) observed 0900 UTC 22 March 2019
Temperature: 9.0°C (48°F)
Dewpoint: 1.0°C (34°F) [RH = 57%]
Pressure (altimeter): 30.21 inches Hg (1023.0 mb)
Winds: from the NNE (20 degrees) at 16 MPH (14 knots; 7.2 m/s)
Visibility: 6 or more miles (10+ km)
Ceiling: at least 12,000 feet AGL
Clouds: few clouds at 3000 feet AGL
Weather: no significant weather observed at this time

METAR text: ZSPD 220830Z 02007MPS 350V050 9999 FEW030 09/01 Q1022 NOSIG
Conditions at: ZSPD (SHANGHAI/PUDONG , CN) observed 0830 UTC 22 March 2019
Temperature: 9.0°C (48°F)
Dewpoint: 1.0°C (34°F) [RH = 57%]
Pressure (altimeter): 30.18 inches Hg (1022.0 mb)
Winds: from the NNE (20 degrees) at 16 MPH (14 knots; 7.2 m/s)
Visibility: 6 or more miles (10+ km)
Ceiling: at least 12,000 feet AGL
Clouds: few clouds at 3000 feet AGL
Weather: no significant weather observed at this time

METAR text: ZSPD 220800Z 02008MPS 9999 FEW030 09/01 Q1022 NOSIG
Conditions at: ZSPD (SHANGHAI/PUDONG , CN) observed 0800 UTC 22 March 2019
Temperature: 9.0°C (48°F)
Dewpoint: 1.0°C (34°F) [RH = 57%]
Pressure (altimeter): 30.18 inches Hg (1022.0 mb)
Winds: from the NNE (20 degrees) at 18 MPH (16 knots; 8.2 m/s)
Visibility: 6 or more miles (10+ km)
Ceiling: at least 12,000 feet AGL
Clouds: few clouds at 3000 feet AGL
Weather: no significant weather observed at this time

METAR text: ZSPD 220730Z 02008MPS CAVOK 10/02 Q1022 NOSIG
Conditions at: ZSPD (SHANGHAI/PUDONG , CN) observed 0730 UTC 22 March 2019
Temperature: 10.0°C (50°F)
Dewpoint: 2.0°C (36°F) [RH = 57%]
Pressure (altimeter): 30.18 inches Hg (1022.0 mb)
Winds: from the NNE (20 degrees) at 18 MPH (16 knots; 8.2 m/s)
Visibility: 6 or more miles (10+ km)
Ceiling: ceiling and visibility are OK
Clouds: unknown
Weather: no significant weather observed at this time

METAR text: ZSPD 220700Z 02009MPS CAVOK 10/01 Q1022 NOSIG
Conditions at: ZSPD (SHANGHAI/PUDONG , CN) observed 0700 UTC 22 March 2019
Temperature: 10.0°C (50°F)
Dewpoint: 1.0°C (34°F) [RH = 53%]
Pressure (altimeter): 30.18 inches Hg (1022.0 mb)
Winds: from the NNE (20 degrees) at 20 MPH (17 knots; 8.7 m/s)
Visibility: 6 or more miles (10+ km)
Ceiling: ceiling and visibility are OK
Clouds: unknown
Weather: no significant weather observed at this time

METAR text: ZSPD 220630Z 02009G14MPS 9999 FEW033 11/03 Q1022 NOSIG
Conditions at: ZSPD (SHANGHAI/PUDONG , CN) observed 0630 UTC 22 March 2019
Temperature: 11.0°C (52°F)
Dewpoint: 3.0°C (37°F) [RH = 58%]
Pressure (altimeter): 30.18 inches Hg (1022.0 mb)
Winds: from the NNE (20 degrees) at 20 MPH (17 knots; 8.7 m/s)
gusting to 31 MPH (27 knots; 13.9 m/s)
Visibility: 6 or more miles (10+ km)
Ceiling: at least 12,000 feet AGL
Clouds: few clouds at 3300 feet AGL
Weather: no significant weather observed at this time

METAR text: ZSPD 220600Z 02007MPS 350V050 9999 FEW033 11/02 Q1023 NOSIG
Conditions at: ZSPD (SHANGHAI/PUDONG , CN) observed 0600 UTC 22 March 2019
Temperature: 11.0°C (52°F)
Dewpoint: 2.0°C (36°F) [RH = 54%]
Pressure (altimeter): 30.21 inches Hg (1023.0 mb)
Winds: from the NNE (20 degrees) at 16 MPH (14 knots; 7.2 m/s)
Visibility: 6 or more miles (10+ km)
Ceiling: at least 12,000 feet AGL
Clouds: few clouds at 3300 feet AGL
Weather: no significant weather observed at this time

METAR text: ZSPD 220530Z 03007MPS 9999 SCT030 12/03 Q1023 NOSIG
Conditions at: ZSPD (SHANGHAI/PUDONG , CN) observed 0530 UTC 22 March 2019
Temperature: 12.0°C (54°F)
Dewpoint: 3.0°C (37°F) [RH = 54%]
Pressure (altimeter): 30.21 inches Hg (1023.0 mb)
Winds: from the NNE (30 degrees) at 16 MPH (14 knots; 7.2 m/s)
Visibility: 6 or more miles (10+ km)
Ceiling: at least 12,000 feet AGL
Clouds: scattered clouds at 3000 feet AGL
Weather: no significant weather observed at this time

METAR text: ZSPD 220500Z 02008MPS 9999 SCT030 11/03 Q1024 NOSIG
Conditions at: ZSPD (SHANGHAI/PUDONG , CN) observed 0500 UTC 22 March 2019
Temperature: 11.0°C (52°F)
Dewpoint: 3.0°C (37°F) [RH = 58%]
Pressure (altimeter): 30.24 inches Hg (1024.0 mb)
Winds: from the NNE (20 degrees) at 18 MPH (16 knots; 8.2 m/s)
Visibility: 6 or more miles (10+ km)
Ceiling: at least 12,000 feet AGL
Clouds: scattered clouds at 3000 feet AGL
Weather: no significant weather observed at this time

METAR text: ZSPD 220430Z 01006MPS 9999 BKN030 11/03 Q1024 NOSIG
Conditions at: ZSPD (SHANGHAI/PUDONG , CN) observed 0430 UTC 22 March 2019
Temperature: 11.0°C (52°F)
Dewpoint: 3.0°C (37°F) [RH = 58%]
Pressure (altimeter): 30.24 inches Hg (1024.0 mb)
Winds: from the N (10 degrees) at 14 MPH (12 knots; 6.2 m/s)
Visibility: 6 or more miles (10+ km)
Ceiling: 3000 feet AGL
Clouds: broken clouds at 3000 feet AGL
Weather: no significant weather observed at this time

METAR text: ZSPD 220400Z 01008MPS 9999 SCT030 11/02 Q1023 NOSIG
Conditions at: ZSPD (SHANGHAI/PUDONG , CN) observed 0400 UTC 22 March 2019
Temperature: 11.0°C (52°F)
Dewpoint: 2.0°C (36°F) [RH = 54%]
Pressure (altimeter): 30.21 inches Hg (1023.0 mb)
Winds: from the N (10 degrees) at 18 MPH (16 knots; 8.2 m/s)
Visibility: 6 or more miles (10+ km)
Ceiling: at least 12,000 feet AGL
Clouds: scattered clouds at 3000 feet AGL
Weather: no significant weather observed at this time

METAR text: ZSPD 220330Z 01008MPS 340V040 9999 SCT030 10/03 Q1023 NOSIG
Conditions at: ZSPD (SHANGHAI/PUDONG , CN) observed 0330 UTC 22 March 2019
Temperature: 10.0°C (50°F)
Dewpoint: 3.0°C (37°F) [RH = 62%]
Pressure (altimeter): 30.21 inches Hg (1023.0 mb)
Winds: from the N (10 degrees) at 18 MPH (16 knots; 8.2 m/s)
Visibility: 6 or more miles (10+ km)
Ceiling: at least 12,000 feet AGL
Clouds: scattered clouds at 3000 feet AGL
Weather: no significant weather observed at this time

METAR text: ZSPD 220300Z 01007MPS 9999 BKN030 10/03 Q1024 NOSIG
Conditions at: ZSPD (SHANGHAI/PUDONG , CN) observed 0300 UTC 22 March 2019
Temperature: 10.0°C (50°F)
Dewpoint: 3.0°C (37°F) [RH = 62%]
Pressure (altimeter): 30.24 inches Hg (1024.0 mb)
Winds: from the N (10 degrees) at 16 MPH (14 knots; 7.2 m/s)
Visibility: 6 or more miles (10+ km)
Ceiling: 3000 feet AGL
Clouds: broken clouds at 3000 feet AGL
Weather: no significant weather observed at this time

METAR text: ZSPD 220230Z 01009MPS 9999 BKN030 10/03 Q1024 NOSIG
Conditions at: ZSPD (SHANGHAI/PUDONG , CN) observed 0230 UTC 22 March 2019
Temperature: 10.0°C (50°F)
Dewpoint: 3.0°C (37°F) [RH = 62%]
Pressure (altimeter): 30.24 inches Hg (1024.0 mb)
Winds: from the N (10 degrees) at 20 MPH (17 knots; 8.7 m/s)
Visibility: 6 or more miles (10+ km)
Ceiling: 3000 feet AGL
Clouds: broken clouds at 3000 feet AGL
Weather: no significant weather observed at this time

METAR text: ZSPD 220200Z 36008MPS 9999 BKN030 09/03 Q1024 NOSIG
Conditions at: ZSPD (SHANGHAI/PUDONG , CN) observed 0200 UTC 22 March 2019
Temperature: 9.0°C (48°F)
Dewpoint: 3.0°C (37°F) [RH = 66%]
Pressure (altimeter): 30.24 inches Hg (1024.0 mb)
Winds: from the N (360 degrees) at 18 MPH (16 knots; 8.2 m/s)
Visibility: 6 or more miles (10+ km)
Ceiling: 3000 feet AGL
Clouds: broken clouds at 3000 feet AGL
Weather: no significant weather observed at this time

METAR text: ZSPD 220130Z 01007MPS 9999 BKN030 09/02 Q1025 NOSIG
Conditions at: ZSPD (SHANGHAI/PUDONG , CN) observed 0130 UTC 22 March 2019
Temperature: 9.0°C (48°F)
Dewpoint: 2.0°C (36°F) [RH = 61%]
Pressure (altimeter): 30.27 inches Hg (1025.0 mb)
Winds: from the N (10 degrees) at 16 MPH (14 knots; 7.2 m/s)
Visibility: 6 or more miles (10+ km)
Ceiling: 3000 feet AGL
Clouds: broken clouds at 3000 feet AGL
Weather: no significant weather observed at this time

METAR text: ZSPD 220100Z 36008MPS 9999 BKN030 09/03 Q1025 NOSIG
Conditions at: ZSPD (SHANGHAI/PUDONG , CN) observed 0100 UTC 22 March 2019
Temperature: 9.0°C (48°F)
Dewpoint: 3.0°C (37°F) [RH = 66%]
Pressure (altimeter): 30.27 inches Hg (1025.0 mb)
Winds: from the N (360 degrees) at 18 MPH (16 knots; 8.2 m/s)
Visibility: 6 or more miles (10+ km)
Ceiling: 3000 feet AGL
Clouds: broken clouds at 3000 feet AGL
Weather: no significant weather observed at this time

METAR text: ZSPD 220030Z 01008MPS 9999 BKN030 09/04 Q1024 NOSIG
Conditions at: ZSPD (SHANGHAI/PUDONG , CN) observed 0030 UTC 22 March 2019
Temperature: 9.0°C (48°F)
Dewpoint: 4.0°C (39°F) [RH = 71%]
Pressure (altimeter): 30.24 inches Hg (1024.0 mb)
Winds: from the N (10 degrees) at 18 MPH (16 knots; 8.2 m/s)
Visibility: 6 or more miles (10+ km)
Ceiling: 3000 feet AGL
Clouds: broken clouds at 3000 feet AGL
Weather: no significant weather observed at this time

METAR text: ZSPD 220000Z 01007MPS 9999 BKN030 09/04 Q1024 NOSIG
Conditions at: ZSPD (SHANGHAI/PUDONG , CN) observed 0000 UTC 22 March 2019
Temperature: 9.0°C (48°F)
Dewpoint: 4.0°C (39°F) [RH = 71%]
Pressure (altimeter): 30.24 inches Hg (1024.0 mb)
Winds: from the N (10 degrees) at 16 MPH (14 knots; 7.2 m/s)
Visibility: 6 or more miles (10+ km)
Ceiling: 3000 feet AGL
Clouds: broken clouds at 3000 feet AGL
Weather: no significant weather observed at this time

METAR text: ZSPD 212330Z 01007MPS 9999 BKN030 08/04 Q1024 NOSIG
Conditions at: ZSPD (SHANGHAI/PUDONG , CN) observed 2330 UTC 21 March 2019
Temperature: 8.0°C (46°F)
Dewpoint: 4.0°C (39°F) [RH = 76%]
Pressure (altimeter): 30.24 inches Hg (1024.0 mb)
Winds: from the N (10 degrees) at 16 MPH (14 knots; 7.2 m/s)
Visibility: 6 or more miles (10+ km)
Ceiling: 3000 feet AGL
Clouds: broken clouds at 3000 feet AGL
Weather: no significant weather observed at this time

METAR text: ZSPD 212300Z 01007MPS 9999 BKN030 08/04 Q1023 NOSIG
Conditions at: ZSPD (SHANGHAI/PUDONG , CN) observed 2300 UTC 21 March 2019
Temperature: 8.0°C (46°F)
Dewpoint: 4.0°C (39°F) [RH = 76%]
Pressure (altimeter): 30.21 inches Hg (1023.0 mb)
Winds: from the N (10 degrees) at 16 MPH (14 knots; 7.2 m/s)
Visibility: 6 or more miles (10+ km)
Ceiling: 3000 feet AGL
Clouds: broken clouds at 3000 feet AGL
Weather: no significant weather observed at this time

METAR text: ZSPD 212230Z 01007MPS 9999 BKN026 08/04 Q1023 NOSIG
Conditions at: ZSPD (SHANGHAI/PUDONG , CN) observed 2230 UTC 21 March 2019
Temperature: 8.0°C (46°F)
Dewpoint: 4.0°C (39°F) [RH = 76%]
Pressure (altimeter): 30.21 inches Hg (1023.0 mb)
Winds: from the N (10 degrees) at 16 MPH (14 knots; 7.2 m/s)
Visibility: 6 or more miles (10+ km)
Ceiling: 2600 feet AGL
Clouds: broken clouds at 2600 feet AGL
Weather: no significant weather observed at this time

METAR text: ZSPD 212200Z 01008MPS 9999 BKN026 08/04 Q1022 NOSIG
Conditions at: ZSPD (SHANGHAI/PUDONG , CN) observed 2200 UTC 21 March 2019
Temperature: 8.0°C (46°F)
Dewpoint: 4.0°C (39°F) [RH = 76%]
Pressure (altimeter): 30.18 inches Hg (1022.0 mb)
Winds: from the N (10 degrees) at 18 MPH (16 knots; 8.2 m/s)
Visibility: 6 or more miles (10+ km)
Ceiling: 2600 feet AGL
Clouds: broken clouds at 2600 feet AGL
Weather: no significant weather observed at this time

METAR text: ZSPD 212130Z 01007MPS 9999 BKN026 08/04 Q1022 NOSIG
Conditions at: ZSPD (SHANGHAI/PUDONG , CN) observed 2130 UTC 21 March 2019
Temperature: 8.0°C (46°F)
Dewpoint: 4.0°C (39°F) [RH = 76%]
Pressure (altimeter): 30.18 inches Hg (1022.0 mb)
Winds: from the N (10 degrees) at 16 MPH (14 knots; 7.2 m/s)
Visibility: 6 or more miles (10+ km)
Ceiling: 2600 feet AGL
Clouds: broken clouds at 2600 feet AGL
Weather: no significant weather observed at this time

METAR text: ZSPD 212100Z 01008MPS 9999 BKN026 08/04 Q1022 NOSIG
Conditions at: ZSPD (SHANGHAI/PUDONG , CN) observed 2100 UTC 21 March 2019
Temperature: 8.0°C (46°F)
Dewpoint: 4.0°C (39°F) [RH = 76%]
Pressure (altimeter): 30.18 inches Hg (1022.0 mb)
Winds: from the N (10 degrees) at 18 MPH (16 knots; 8.2 m/s)
Visibility: 6 or more miles (10+ km)
Ceiling: 2600 feet AGL
Clouds: broken clouds at 2600 feet AGL
Weather: no significant weather observed at this time

METAR text: ZSPD 212030Z 01006MPS 9999 BKN023 08/04 Q1021 NOSIG
Conditions at: ZSPD (SHANGHAI/PUDONG , CN) observed 2030 UTC 21 March 2019
Temperature: 8.0°C (46°F)
Dewpoint: 4.0°C (39°F) [RH = 76%]
Pressure (altimeter): 30.15 inches Hg (1021.0 mb)
Winds: from the N (10 degrees) at 14 MPH (12 knots; 6.2 m/s)
Visibility: 6 or more miles (10+ km)
Ceiling: 2300 feet AGL
Clouds: broken clouds at 2300 feet AGL
Weather: no significant weather observed at this time

METAR text: ZSPD 212000Z 36007MPS 9999 BKN023 08/04 Q1022 NOSIG
Conditions at: ZSPD (SHANGHAI/PUDONG , CN) observed 2000 UTC 21 March 2019
Temperature: 8.0°C (46°F)
Dewpoint: 4.0°C (39°F) [RH = 76%]
Pressure (altimeter): 30.18 inches Hg (1022.0 mb)
Winds: from the N (360 degrees) at 16 MPH (14 knots; 7.2 m/s)
Visibility: 6 or more miles (10+ km)
Ceiling: 2300 feet AGL
Clouds: broken clouds at 2300 feet AGL
Weather: no significant weather observed at this time

METAR text: ZSPD 211930Z 36007MPS 9999 BKN023 08/04 Q1022 NOSIG
Conditions at: ZSPD (SHANGHAI/PUDONG , CN) observed 1930 UTC 21 March 2019
Temperature: 8.0°C (46°F)
Dewpoint: 4.0°C (39°F) [RH = 76%]
Pressure (altimeter): 30.18 inches Hg (1022.0 mb)
Winds: from the N (360 degrees) at 16 MPH (14 knots; 7.2 m/s)
Visibility: 6 or more miles (10+ km)
Ceiling: 2300 feet AGL
Clouds: broken clouds at 2300 feet AGL
Weather: no significant weather observed at this time

METAR text: ZSPD 211900Z 36007MPS 9999 BKN023 08/05 Q1021 NOSIG
Conditions at: ZSPD (SHANGHAI/PUDONG , CN) observed 1900 UTC 21 March 2019
Temperature: 8.0°C (46°F)
Dewpoint: 5.0°C (41°F) [RH = 81%]
Pressure (altimeter): 30.15 inches Hg (1021.0 mb)
Winds: from the N (360 degrees) at 16 MPH (14 knots; 7.2 m/s)
Visibility: 6 or more miles (10+ km)
Ceiling: 2300 feet AGL
Clouds: broken clouds at 2300 feet AGL
Weather: no significant weather observed at this time

METAR text: ZSPD 211830Z 36008MPS 9999 BKN023 08/04 Q1021 NOSIG
Conditions at: ZSPD (SHANGHAI/PUDONG , CN) observed 1830 UTC 21 March 2019
Temperature: 8.0°C (46°F)
Dewpoint: 4.0°C (39°F) [RH = 76%]
Pressure (altimeter): 30.15 inches Hg (1021.0 mb)
Winds: from the N (360 degrees) at 18 MPH (16 knots; 8.2 m/s)
Visibility: 6 or more miles (10+ km)
Ceiling: 2300 feet AGL
Clouds: broken clouds at 2300 feet AGL
Weather: no significant weather observed at this time

METAR text: ZSPD 211800Z 36007MPS 9999 -SHRA BKN023 08/04 Q1022 NOSIG
Conditions at: ZSPD (SHANGHAI/PUDONG , CN) observed 1800 UTC 21 March 2019
Temperature: 8.0°C (46°F)
Dewpoint: 4.0°C (39°F) [RH = 76%]
Pressure (altimeter): 30.18 inches Hg (1022.0 mb)
Winds: from the N (360 degrees) at 16 MPH (14 knots; 7.2 m/s)
Visibility: 6 or more miles (10+ km)
Ceiling: 2300 feet AGL
Clouds: broken clouds at 2300 feet AGL
Weather: -SHRA  (light rain showers)

METAR text: ZSPD 211730Z 36009MPS 9999 -SHRA SCT020 08/04 Q1022 NOSIG
Conditions at: ZSPD (SHANGHAI/PUDONG , CN) observed 1730 UTC 21 March 2019
Temperature: 8.0°C (46°F)
Dewpoint: 4.0°C (39°F) [RH = 76%]
Pressure (altimeter): 30.18 inches Hg (1022.0 mb)
Winds: from the N (360 degrees) at 20 MPH (17 knots; 8.7 m/s)
Visibility: 6 or more miles (10+ km)
Ceiling: at least 12,000 feet AGL
Clouds: scattered clouds at 2000 feet AGL
Weather: -SHRA  (light rain showers)

METAR text: ZSPD 211700Z 01008MPS 9999 -SHRA SCT020 08/04 Q1021 NOSIG
Conditions at: ZSPD (SHANGHAI/PUDONG , CN) observed 1700 UTC 21 March 2019
Temperature: 8.0°C (46°F)
Dewpoint: 4.0°C (39°F) [RH = 76%]
Pressure (altimeter): 30.15 inches Hg (1021.0 mb)
Winds: from the N (10 degrees) at 18 MPH (16 knots; 8.2 m/s)
Visibility: 6 or more miles (10+ km)
Ceiling: at least 12,000 feet AGL
Clouds: scattered clouds at 2000 feet AGL
Weather: -SHRA  (light rain showers)

METAR text: ZSPD 211630Z 36009MPS 9999 SCT020 08/05 Q1021 NOSIG
Conditions at: ZSPD (SHANGHAI/PUDONG , CN) observed 1630 UTC 21 March 2019
Temperature: 8.0°C (46°F)
Dewpoint: 5.0°C (41°F) [RH = 81%]
Pressure (altimeter): 30.15 inches Hg (1021.0 mb)
Winds: from the N (360 degrees) at 20 MPH (17 knots; 8.7 m/s)
Visibility: 6 or more miles (10+ km)
Ceiling: at least 12,000 feet AGL
Clouds: scattered clouds at 2000 feet AGL
Weather: no significant weather observed at this time

METAR text: ZSPD 211600Z 01007MPS 9999 -SHRA SCT020 08/05 Q1021 NOSIG
Conditions at: ZSPD (SHANGHAI/PUDONG , CN) observed 1600 UTC 21 March 2019
Temperature: 8.0°C (46°F)
Dewpoint: 5.0°C (41°F) [RH = 81%]
Pressure (altimeter): 30.15 inches Hg (1021.0 mb)
Winds: from the N (10 degrees) at 16 MPH (14 knots; 7.2 m/s)
Visibility: 6 or more miles (10+ km)
Ceiling: at least 12,000 feet AGL
Clouds: scattered clouds at 2000 feet AGL
Weather: -SHRA  (light rain showers)

METAR text: ZSPD 211530Z 01008MPS 9999 -SHRA SCT016 09/05 Q1021 NOSIG
Conditions at: ZSPD (SHANGHAI/PUDONG , CN) observed 1530 UTC 21 March 2019
Temperature: 9.0°C (48°F)
Dewpoint: 5.0°C (41°F) [RH = 76%]
Pressure (altimeter): 30.15 inches Hg (1021.0 mb)
Winds: from the N (10 degrees) at 18 MPH (16 knots; 8.2 m/s)
Visibility: 6 or more miles (10+ km)
Ceiling: at least 12,000 feet AGL
Clouds: scattered clouds at 1600 feet AGL
Weather: -SHRA  (light rain showers)

METAR text: ZSPD 211500Z 01007MPS 9999 SCT016 09/06 Q1021 NOSIG
Conditions at: ZSPD (SHANGHAI/PUDONG , CN) observed 1500 UTC 21 March 2019
Temperature: 9.0°C (48°F)
Dewpoint: 6.0°C (43°F) [RH = 81%]
Pressure (altimeter): 30.15 inches Hg (1021.0 mb)
Winds: from the N (10 degrees) at 16 MPH (14 knots; 7.2 m/s)
Visibility: 6 or more miles (10+ km)
Ceiling: at least 12,000 feet AGL
Clouds: scattered clouds at 1600 feet AGL
Weather: no significant weather observed at this time

METAR text: ZSPD 211430Z 02009MPS 9999 SCT016 10/06 Q1021 NOSIG
Conditions at: ZSPD (SHANGHAI/PUDONG , CN) observed 1430 UTC 21 March 2019
Temperature: 10.0°C (50°F)
Dewpoint: 6.0°C (43°F) [RH = 76%]
Pressure (altimeter): 30.15 inches Hg (1021.0 mb)
Winds: from the NNE (20 degrees) at 20 MPH (17 knots; 8.7 m/s)
Visibility: 6 or more miles (10+ km)
Ceiling: at least 12,000 feet AGL
Clouds: scattered clouds at 1600 feet AGL
Weather: no significant weather observed at this time

METAR text: ZSPD 211400Z 01009MPS 9999 SCT016 10/07 Q1021 NOSIG
Conditions at: ZSPD (SHANGHAI/PUDONG , CN) observed 1400 UTC 21 March 2019
Temperature: 10.0°C (50°F)
Dewpoint: 7.0°C (45°F) [RH = 82%]
Pressure (altimeter): 30.15 inches Hg (1021.0 mb)
Winds: from the N (10 degrees) at 20 MPH (17 knots; 8.7 m/s)
Visibility: 6 or more miles (10+ km)
Ceiling: at least 12,000 feet AGL
Clouds: scattered clouds at 1600 feet AGL
Weather: no significant weather observed at this time

METAR text: ZSPD 211330Z 02010MPS 9999 SCT013 10/07 Q1020 NOSIG
Conditions at: ZSPD (SHANGHAI/PUDONG , CN) observed 1330 UTC 21 March 2019
Temperature: 10.0°C (50°F)
Dewpoint: 7.0°C (45°F) [RH = 82%]
Pressure (altimeter): 30.12 inches Hg (1020.0 mb)
Winds: from the NNE (20 degrees) at 22 MPH (19 knots; 9.8 m/s)
Visibility: 6 or more miles (10+ km)
Ceiling: at least 12,000 feet AGL
Clouds: scattered clouds at 1300 feet AGL
Weather: no significant weather observed at this time

METAR text: ZSPD 211300Z 02009MPS 9999 SCT013 10/08 Q1019 BECMG TL1340 BKN011
Conditions at: ZSPD (SHANGHAI/PUDONG , CN) observed 1300 UTC 21 March 2019
Temperature: 10.0°C (50°F)
Dewpoint: 8.0°C (46°F) [RH = 87%]
Pressure (altimeter): 30.09 inches Hg (1019.0 mb)
Winds: from the NNE (20 degrees) at 20 MPH (17 knots; 8.7 m/s)
Visibility: 6 or more miles (10+ km)
Ceiling: at least 12,000 feet AGL
Clouds: scattered clouds at 1300 feet AGL
Weather: no significant weather observed at this time

METAR text: ZSPD 211230Z 03009MPS 9999 SCT013 10/08 Q1019 NOSIG
Conditions at: ZSPD (SHANGHAI/PUDONG , CN) observed 1230 UTC 21 March 2019
Temperature: 10.0°C (50°F)
Dewpoint: 8.0°C (46°F) [RH = 87%]
Pressure (altimeter): 30.09 inches Hg (1019.0 mb)
Winds: from the NNE (30 degrees) at 20 MPH (17 knots; 8.7 m/s)
Visibility: 6 or more miles (10+ km)
Ceiling: at least 12,000 feet AGL
Clouds: scattered clouds at 1300 feet AGL
Weather: no significant weather observed at this time

METAR text: ZSPD 211200Z 02009MPS 9999 -SHRA BKN011 OVC026 10/08 Q1018 NOSIG
Conditions at: ZSPD (SHANGHAI/PUDONG , CN) observed 1200 UTC 21 March 2019
Temperature: 10.0°C (50°F)
Dewpoint: 8.0°C (46°F) [RH = 87%]
Pressure (altimeter): 30.06 inches Hg (1018.0 mb)
Winds: from the NNE (20 degrees) at 20 MPH (17 knots; 8.7 m/s)
Visibility: 6 or more miles (10+ km)
Ceiling: 1100 feet AGL
Clouds: broken clouds at 1100 feet AGL
overcast cloud deck at 2600 feet AGL
Weather: -SHRA  (light rain showers)

METAR text: ZSPD 211130Z 02008MPS 9999 -SHRA BKN011 OVC026 10/09 Q1019 NOSIG
Conditions at: ZSPD (SHANGHAI/PUDONG , CN) observed 1130 UTC 21 March 2019
Temperature: 10.0°C (50°F)
Dewpoint: 9.0°C (48°F) [RH = 93%]
Pressure (altimeter): 30.09 inches Hg (1019.0 mb)
Winds: from the NNE (20 degrees) at 18 MPH (16 knots; 8.2 m/s)
Visibility: 6 or more miles (10+ km)
Ceiling: 1100 feet AGL
Clouds: broken clouds at 1100 feet AGL
overcast cloud deck at 2600 feet AGL
Weather: -SHRA  (light rain showers)

METAR text: ZSPD 211100Z 02007MPS 9999 -SHRA BKN011 OVC033 10/09 Q1019 BECMG TL1200 BKN009
Conditions at: ZSPD (SHANGHAI/PUDONG , CN) observed 1100 UTC 21 March 2019
Temperature: 10.0°C (50°F)
Dewpoint: 9.0°C (48°F) [RH = 93%]
Pressure (altimeter): 30.09 inches Hg (1019.0 mb)
Winds: from the NNE (20 degrees) at 16 MPH (14 knots; 7.2 m/s)
Visibility: 6 or more miles (10+ km)
Ceiling: 1100 feet AGL
Clouds: broken clouds at 1100 feet AGL
overcast cloud deck at 3300 feet AGL
Weather: -SHRA  (light rain showers)

METAR text: ZSPD 211030Z 02007MPS 8000 -SHRA BKN011 OVC033 10/09 Q1018 NOSIG
Conditions at: ZSPD (SHANGHAI/PUDONG , CN) observed 1030 UTC 21 March 2019
Temperature: 10.0°C (50°F)
Dewpoint: 9.0°C (48°F) [RH = 93%]
Pressure (altimeter): 30.06 inches Hg (1018.0 mb)
Winds: from the NNE (20 degrees) at 16 MPH (14 knots; 7.2 m/s)
Visibility: 5 miles ( 8 km)
Ceiling: 1100 feet AGL
Clouds: broken clouds at 1100 feet AGL
overcast cloud deck at 3300 feet AGL
Weather: -SHRA  (light rain showers)

METAR text: ZSPD 211000Z 36007MPS 8000 -SHRA BKN015 10/09 Q1018 BECMG TL1030 BKN011
Conditions at: ZSPD (SHANGHAI/PUDONG , CN) observed 1000 UTC 21 March 2019
Temperature: 10.0°C (50°F)
Dewpoint: 9.0°C (48°F) [RH = 93%]
Pressure (altimeter): 30.06 inches Hg (1018.0 mb)
Winds: from the N (360 degrees) at 16 MPH (14 knots; 7.2 m/s)
Visibility: 5 miles ( 8 km)
Ceiling: 1500 feet AGL
Clouds: broken clouds at 1500 feet AGL
Weather: -SHRA  (light rain showers)

METAR text: ZSPD 210930Z 01008MPS 7000 -SHRA BKN015 10/09 Q1017 NOSIG
Conditions at: ZSPD (SHANGHAI/PUDONG , CN) observed 0930 UTC 21 March 2019
Temperature: 10.0°C (50°F)
Dewpoint: 9.0°C (48°F) [RH = 93%]
Pressure (altimeter): 30.03 inches Hg (1017.0 mb)
Winds: from the N (10 degrees) at 18 MPH (16 knots; 8.2 m/s)
Visibility: 4 miles ( 7 km)
Ceiling: 1500 feet AGL
Clouds: broken clouds at 1500 feet AGL
Weather: -SHRA  (light rain showers)

METAR text: ZSPD 210900Z 02008MPS 8000 -SHRA BKN015 10/09 Q1017 NOSIG
Conditions at: ZSPD (SHANGHAI/PUDONG , CN) observed 0900 UTC 21 March 2019
Temperature: 10.0°C (50°F)
Dewpoint: 9.0°C (48°F) [RH = 93%]
Pressure (altimeter): 30.03 inches Hg (1017.0 mb)
Winds: from the NNE (20 degrees) at 18 MPH (16 knots; 8.2 m/s)
Visibility: 5 miles ( 8 km)
Ceiling: 1500 feet AGL
Clouds: broken clouds at 1500 feet AGL
Weather: -SHRA  (light rain showers)

METAR text: ZSPD 210830Z 02009MPS 8000 -SHRA BKN013 10/09 Q1016 NOSIG
Conditions at: ZSPD (SHANGHAI/PUDONG , CN) observed 0830 UTC 21 March 2019
Temperature: 10.0°C (50°F)
Dewpoint: 9.0°C (48°F) [RH = 93%]
Pressure (altimeter): 30.00 inches Hg (1016.0 mb)
Winds: from the NNE (20 degrees) at 20 MPH (17 knots; 8.7 m/s)
Visibility: 5 miles ( 8 km)
Ceiling: 1300 feet AGL
Clouds: broken clouds at 1300 feet AGL
Weather: -SHRA  (light rain showers)

METAR text: ZSPD 210800Z 36009MPS 8000 -SHRA BKN013 11/09 Q1016 BECMG TL0930 BKN015
Conditions at: ZSPD (SHANGHAI/PUDONG , CN) observed 0800 UTC 21 March 2019
Temperature: 11.0°C (52°F)
Dewpoint: 9.0°C (48°F) [RH = 87%]
Pressure (altimeter): 30.00 inches Hg (1016.0 mb)
Winds: from the N (360 degrees) at 20 MPH (17 knots; 8.7 m/s)
Visibility: 5 miles ( 8 km)
Ceiling: 1300 feet AGL
Clouds: broken clouds at 1300 feet AGL
Weather: -SHRA  (light rain showers)

METAR text: ZSPD 210730Z 36008MPS 6000 -SHRA BKN013 11/10 Q1015 NOSIG
Conditions at: ZSPD (SHANGHAI/PUDONG , CN) observed 0730 UTC 21 March 2019
Temperature: 11.0°C (52°F)
Dewpoint: 10.0°C (50°F) [RH = 94%]
Pressure (altimeter): 29.97 inches Hg (1015.0 mb)
Winds: from the N (360 degrees) at 18 MPH (16 knots; 8.2 m/s)
Visibility: 4 miles ( 6 km)
Ceiling: 1300 feet AGL
Clouds: broken clouds at 1300 feet AGL
Weather: -SHRA  (light rain showers)

METAR text: ZSPD 210700Z 01008MPS 4500 -SHRA BR SCT012 12/10 Q1015 BECMG TL0830 BKN011
Conditions at: ZSPD (SHANGHAI/PUDONG , CN) observed 0700 UTC 21 March 2019
Temperature: 12.0°C (54°F)
Dewpoint: 10.0°C (50°F) [RH = 88%]
Pressure (altimeter): 29.97 inches Hg (1015.0 mb)
Winds: from the N (10 degrees) at 18 MPH (16 knots; 8.2 m/s)
Visibility: 2.80 miles (4.51 km)
Ceiling: at least 12,000 feet AGL
Clouds: scattered clouds at 1200 feet AGL
Weather: -SHRA BR  (light rain showers, mist)

METAR text: ZSPD 210630Z 03007MPS 010V070 5000 -SHRA BR NSC 12/10 Q1013 NOSIG
Conditions at: ZSPD (SHANGHAI/PUDONG , CN) observed 0630 UTC 21 March 2019
Temperature: 12.0°C (54°F)
Dewpoint: 10.0°C (50°F) [RH = 88%]
Pressure (altimeter): 29.91 inches Hg (1013.0 mb)
Winds: from the NNE (30 degrees) at 16 MPH (14 knots; 7.2 m/s)
Visibility: 3 miles ( 5 km)
Ceiling: at least 12,000 feet AGL
Clouds: sky clear below 12,000 feet AGL
Weather: -SHRA BR  (light rain showers, mist)

METAR text: ZSPD 210600Z 01006MPS 2500 -SHRA BR NSC 13/12 Q1015 BECMG TL0730 3500
Conditions at: ZSPD (SHANGHAI/PUDONG , CN) observed 0600 UTC 21 March 2019
Temperature: 13.0°C (55°F)
Dewpoint: 12.0°C (54°F) [RH = 94%]
Pressure (altimeter): 29.97 inches Hg (1015.0 mb)
Winds: from the N (10 degrees) at 14 MPH (12 knots; 6.2 m/s)
Visibility: 1.55 miles (2.49 km)
Ceiling: at least 12,000 feet AGL
Clouds: sky clear below 12,000 feet AGL
Weather: -SHRA BR  (light rain showers, mist)

METAR text: ZSPD 210530Z 35007MPS 2500 -SHRA BR NSC 14/12 Q1015 NOSIG
Conditions at: ZSPD (SHANGHAI/PUDONG , CN) observed 0530 UTC 21 March 2019
Temperature: 14.0°C (57°F)
Dewpoint: 12.0°C (54°F) [RH = 88%]
Pressure (altimeter): 29.97 inches Hg (1015.0 mb)
Winds: from the N (350 degrees) at 16 MPH (14 knots; 7.2 m/s)
Visibility: 1.55 miles (2.49 km)
Ceiling: at least 12,000 feet AGL
Clouds: sky clear below 12,000 feet AGL
Weather: -SHRA BR  (light rain showers, mist)

METAR text: ZSPD 210500Z 35008MPS 2800 -SHRA BR NSC 15/13 Q1015 BECMG TL0630 3500
Conditions at: ZSPD (SHANGHAI/PUDONG , CN) observed 0500 UTC 21 March 2019
Temperature: 15.0°C (59°F)
Dewpoint: 13.0°C (55°F) [RH = 88%]
Pressure (altimeter): 29.97 inches Hg (1015.0 mb)
Winds: from the N (350 degrees) at 18 MPH (16 knots; 8.2 m/s)
Visibility: 1.74 miles (2.80 km)
Ceiling: at least 12,000 feet AGL
Clouds: sky clear below 12,000 feet AGL
Weather: -SHRA BR  (light rain showers, mist)

METAR text: ZSPD 210430Z 34008MPS 4000 -SHRA BR NSC 16/13 Q1015 NOSIG
Conditions at: ZSPD (SHANGHAI/PUDONG , CN) observed 0430 UTC 21 March 2019
Temperature: 16.0°C (61°F)
Dewpoint: 13.0°C (55°F) [RH = 82%]
Pressure (altimeter): 29.97 inches Hg (1015.0 mb)
Winds: from the NNW (340 degrees) at 18 MPH (16 knots; 8.2 m/s)
Visibility: 2.49 miles (4.01 km)
Ceiling: at least 12,000 feet AGL
Clouds: sky clear below 12,000 feet AGL
Weather: -SHRA BR  (light rain showers, mist)

METAR text: ZSPD 210400Z 34006MPS 5000 HZ NSC 16/11 Q1015 NOSIG
Conditions at: ZSPD (SHANGHAI/PUDONG , CN) observed 0400 UTC 21 March 2019
Temperature: 16.0°C (61°F)
Dewpoint: 11.0°C (52°F) [RH = 72%]
Pressure (altimeter): 29.97 inches Hg (1015.0 mb)
Winds: from the NNW (340 degrees) at 14 MPH (12 knots; 6.2 m/s)
Visibility: 3 miles ( 5 km)
Ceiling: at least 12,000 feet AGL
Clouds: sky clear below 12,000 feet AGL
Weather: HZ  (haze)

METAR text: ZSPD 210330Z 36008MPS 5000 HZ NSC 17/11 Q1013 NOSIG
Conditions at: ZSPD (SHANGHAI/PUDONG , CN) observed 0330 UTC 21 March 2019
Temperature: 17.0°C (63°F)
Dewpoint: 11.0°C (52°F) [RH = 68%]
Pressure (altimeter): 29.91 inches Hg (1013.0 mb)
Winds: from the N (360 degrees) at 18 MPH (16 knots; 8.2 m/s)
Visibility: 3 miles ( 5 km)
Ceiling: at least 12,000 feet AGL
Clouds: sky clear below 12,000 feet AGL
Weather: HZ  (haze)

METAR text: ZSPD 210300Z 36006MPS 5000 HZ NSC 17/12 Q1013 NOSIG
Conditions at: ZSPD (SHANGHAI/PUDONG , CN) observed 0300 UTC 21 March 2019
Temperature: 17.0°C (63°F)
Dewpoint: 12.0°C (54°F) [RH = 72%]
Pressure (altimeter): 29.91 inches Hg (1013.0 mb)
Winds: from the N (360 degrees) at 14 MPH (12 knots; 6.2 m/s)
Visibility: 3 miles ( 5 km)
Ceiling: at least 12,000 feet AGL
Clouds: sky clear below 12,000 feet AGL
Weather: HZ  (haze)

METAR text: ZSPD 210230Z 01006G11MPS 6000 NSC 17/11 Q1013 NOSIG
Conditions at: ZSPD (SHANGHAI/PUDONG , CN) observed 0230 UTC 21 March 2019
Temperature: 17.0°C (63°F)
Dewpoint: 11.0°C (52°F) [RH = 68%]
Pressure (altimeter): 29.91 inches Hg (1013.0 mb)
Winds: from the N (10 degrees) at 14 MPH (12 knots; 6.2 m/s)
gusting to 24 MPH (21 knots; 10.8 m/s)
Visibility: 4 miles ( 6 km)
Ceiling: at least 12,000 feet AGL
Clouds: sky clear below 12,000 feet AGL
Weather: no significant weather observed at this time

METAR text: ZSPD 210200Z 36006MPS 8000 NSC 17/10 Q1013 NOSIG
Conditions at: ZSPD (SHANGHAI/PUDONG , CN) observed 0200 UTC 21 March 2019
Temperature: 17.0°C (63°F)
Dewpoint: 10.0°C (50°F) [RH = 63%]
Pressure (altimeter): 29.91 inches Hg (1013.0 mb)
Winds: from the N (360 degrees) at 14 MPH (12 knots; 6.2 m/s)
Visibility: 5 miles ( 8 km)
Ceiling: at least 12,000 feet AGL
Clouds: sky clear below 12,000 feet AGL
Weather: no significant weather observed at this time

METAR text: ZSPD 210130Z 35004MPS 320V020 7000 NSC 17/10 Q1013 NOSIG
Conditions at: ZSPD (SHANGHAI/PUDONG , CN) observed 0130 UTC 21 March 2019
Temperature: 17.0°C (63°F)
Dewpoint: 10.0°C (50°F) [RH = 63%]
Pressure (altimeter): 29.91 inches Hg (1013.0 mb)
Winds: from the N (350 degrees) at 9 MPH (8 knots; 4.1 m/s)
Visibility: 4 miles ( 7 km)
Ceiling: at least 12,000 feet AGL
Clouds: sky clear below 12,000 feet AGL
Weather: no significant weather observed at this time

METAR text: ZSPD 210100Z 34005MPS 6000 NSC 16/11 Q1013 NOSIG
Conditions at: ZSPD (SHANGHAI/PUDONG , CN) observed 0100 UTC 21 March 2019
Temperature: 16.0°C (61°F)
Dewpoint: 11.0°C (52°F) [RH = 72%]
Pressure (altimeter): 29.91 inches Hg (1013.0 mb)
Winds: from the NNW (340 degrees) at 12 MPH (10 knots; 5.1 m/s)
Visibility: 4 miles ( 6 km)
Ceiling: at least 12,000 feet AGL
Clouds: sky clear below 12,000 feet AGL
Weather: no significant weather observed at this time

METAR text: ZSPD 210030Z 34005MPS 6000 NSC 16/12 Q1013 NOSIG
Conditions at: ZSPD (SHANGHAI/PUDONG , CN) observed 0030 UTC 21 March 2019
Temperature: 16.0°C (61°F)
Dewpoint: 12.0°C (54°F) [RH = 77%]
Pressure (altimeter): 29.91 inches Hg (1013.0 mb)
Winds: from the NNW (340 degrees) at 12 MPH (10 knots; 5.1 m/s)
Visibility: 4 miles ( 6 km)
Ceiling: at least 12,000 feet AGL
Clouds: sky clear below 12,000 feet AGL
Weather: no significant weather observed at this time

Forecast for: ZSPD (SHANGHAI/PUDONG , CN)
Text: TAF ZSPD 220911Z 2212/2312 01005MPS 6000 BKN016 TX14/2306Z TN06/2221Z
Forecast period: 1200 UTC 22 March 2019 to 1200 UTC 23 March 2019
Forecast type: FROM: standard forecast or significant change
Winds: from the N (10 degrees) at 12 MPH (10 knots; 5.1 m/s)
Visibility: 4 miles (6 km)
Ceiling: 1600 feet AGL
Clouds: broken clouds at 1600 feet AGL
Weather: no significant weather forecast for this period